Time;durP1;ratioP1;P1;durP2;ratioP2;P2;SDS_P1;SDS_P2;PMS_P1;PMS_P2;Temp;Humidity;BMP_temperature;BMP_pressure;BME280_temperature;BME280_humidity;BME280_pressure;Samples;Min_cycle;Max_cycle;Signal;HPM_P1;HPM_P2
2024/01/24 00:00:39;;;;;;;3.80;3.33;;;7.90;99.90;;;;;;5017014;28;20487;-60
2024/01/24 00:03:07;;;;;;;3.40;3.10;;;7.90;99.90;;;;;;5015210;28;20494;-60
2024/01/24 00:05:37;;;;;;;3.80;3.40;;;7.90;99.90;;;;;;5014126;28;20485;-59
2024/01/24 00:08:05;;;;;;;3.90;3.60;;;8.00;99.90;;;;;;5016945;28;21044;-60
2024/01/24 00:10:33;;;;;;;3.80;3.50;;;8.00;99.90;;;;;;5016735;28;20483;-60
2024/01/24 00:13:01;;;;;;;3.90;3.57;;;8.00;99.90;;;;;;5018661;28;20557;-61
2024/01/24 00:15:29;;;;;;;3.70;3.30;;;8.10;99.90;;;;;;5015427;28;20472;-62
2024/01/24 00:17:58;;;;;;;3.00;2.80;;;8.10;99.90;;;;;;5011897;28;21004;-60
2024/01/24 00:20:26;;;;;;;3.83;3.53;;;8.10;99.90;;;;;;5013291;28;21002;-60
2024/01/24 00:22:55;;;;;;;4.70;3.80;;;8.10;99.90;;;;;;5014748;28;20495;-61
2024/01/24 00:25:24;;;;;;;4.20;3.80;;;8.20;99.90;;;;;;5017231;28;20513;-60
2024/01/24 00:27:52;;;;;;;4.17;3.77;;;8.20;99.90;;;;;;5013967;28;20471;-60
2024/01/24 00:30:20;;;;;;;4.57;4.17;;;8.30;99.90;;;;;;5012223;28;20529;-60
2024/01/24 00:32:48;;;;;;;4.87;4.37;;;8.30;99.90;;;;;;5021516;28;20467;-58
2024/01/24 00:35:16;;;;;;;5.13;4.63;;;8.40;99.90;;;;;;5019382;28;20503;-58
2024/01/24 00:37:45;;;;;;;5.63;4.43;;;8.40;99.90;;;;;;5022384;28;20550;-59
2024/01/24 00:40:14;;;;;;;5.87;4.67;;;8.40;99.90;;;;;;5011285;28;20483;-59
2024/01/24 00:42:43;;;;;;;6.13;4.87;;;8.50;99.90;;;;;;5020604;28;20495;-60
2024/01/24 00:45:12;;;;;;;5.17;4.67;;;8.50;99.90;;;;;;5019186;28;20480;-59
2024/01/24 00:47:40;;;;;;;5.80;5.17;;;8.60;99.90;;;;;;5021008;28;20482;-59
2024/01/24 00:50:09;;;;;;;5.80;4.87;;;8.60;99.90;;;;;;5011702;28;20490;-59
2024/01/24 00:52:37;;;;;;;5.63;5.10;;;8.70;99.90;;;;;;5017901;28;20957;-60
2024/01/24 00:55:06;;;;;;;6.00;5.30;;;8.70;99.90;;;;;;5016630;28;20975;-60
2024/01/24 00:57:35;;;;;;;5.70;5.10;;;8.80;99.90;;;;;;5016996;28;20559;-59
2024/01/24 01:00:06;;;;;;;5.90;5.30;;;8.80;99.90;;;;;;5017127;28;20491;-59
2024/01/24 01:02:34;;;;;;;5.77;5.27;;;8.90;99.90;;;;;;5016679;28;20523;-60
2024/01/24 01:05:04;;;;;;;5.70;5.10;;;8.90;99.90;;;;;;5012811;28;20535;-59
2024/01/24 01:07:32;;;;;;;6.17;5.27;;;9.00;99.90;;;;;;5016493;28;20534;-59
2024/01/24 01:10:00;;;;;;;6.27;5.50;;;9.00;99.90;;;;;;5018864;28;20873;-59
2024/01/24 01:12:28;;;;;;;7.00;6.30;;;9.10;99.90;;;;;;5017432;28;21057;-59
2024/01/24 01:14:57;;;;;;;7.20;5.53;;;9.10;99.90;;;;;;5017900;28;20504;-58
2024/01/24 01:17:25;;;;;;;5.53;5.03;;;9.10;99.90;;;;;;5010426;28;20482;-58
2024/01/24 01:19:53;;;;;;;7.90;5.77;;;9.10;99.90;;;;;;5008817;28;20530;-59
2024/01/24 01:22:21;;;;;;;7.07;5.70;;;9.20;99.90;;;;;;5015881;28;21012;-59
2024/01/24 01:24:50;;;;;;;7.10;5.07;;;9.20;99.90;;;;;;5014916;28;20491;-59
2024/01/24 01:27:18;;;;;;;6.67;5.37;;;9.30;99.90;;;;;;5016908;28;20467;-60
2024/01/24 01:29:46;;;;;;;5.60;5.03;;;9.30;99.90;;;;;;5014474;28;20609;-59
2024/01/24 01:32:15;;;;;;;7.03;5.23;;;9.40;99.90;;;;;;4997198;28;20559;-60
2024/01/24 01:34:43;;;;;;;8.73;5.20;;;9.40;99.90;;;;;;4997414;28;20476;-60
2024/01/24 01:37:12;;;;;;;5.70;5.00;;;9.50;99.90;;;;;;4998755;28;20554;-60
2024/01/24 01:39:40;;;;;;;6.60;4.97;;;9.50;99.90;;;;;;4997409;28;20487;-58
2024/01/24 01:42:08;;;;;;;4.73;4.33;;;9.60;99.90;;;;;;5017663;28;21036;-60
2024/01/24 01:44:43;;;;;;;5.40;4.90;;;9.60;99.90;;;;;;5016168;28;20506;-59
2024/01/24 01:47:12;;;;;;;4.77;4.27;;;9.60;99.90;;;;;;5019146;28;20473;-60
2024/01/24 01:49:43;;;;;;;5.53;4.53;;;9.70;99.90;;;;;;5017930;28;20467;-61
2024/01/24 01:52:11;;;;;;;4.80;4.27;;;9.70;99.90;;;;;;5020010;28;20476;-60
2024/01/24 01:54:41;;;;;;;4.03;3.63;;;9.70;99.90;;;;;;5021823;28;20546;-61
2024/01/24 01:57:11;;;;;;;4.03;3.63;;;9.80;99.90;;;;;;5020528;28;20514;-61
2024/01/24 01:59:41;;;;;;;4.30;3.90;;;9.90;99.90;;;;;;5019677;28;20514;-61
2024/01/24 02:02:11;;;;;;;4.40;4.00;;;9.90;99.90;;;;;;5020638;28;20471;-61
2024/01/24 02:04:41;;;;;;;4.60;4.20;;;10.00;99.90;;;;;;5020757;28;20491;-61
2024/01/24 02:07:09;;;;;;;4.97;3.50;;;10.00;99.90;;;;;;5017270;28;20475;-61
2024/01/24 02:09:37;;;;;;;3.77;3.47;;;10.00;99.90;;;;;;5020465;28;20472;-61
2024/01/24 02:12:05;;;;;;;4.20;3.80;;;10.10;99.90;;;;;;5019998;28;20484;-61
2024/01/24 02:14:33;;;;;;;3.93;3.63;;;10.10;99.90;;;;;;5018520;28;20470;-61
2024/01/24 02:17:01;;;;;;;4.30;3.90;;;10.20;99.90;;;;;;5019873;28;20910;-61
2024/01/24 02:19:29;;;;;;;4.23;3.40;;;10.30;99.90;;;;;;5020183;28;20545;-61
2024/01/24 02:21:59;;;;;;;4.37;3.90;;;10.30;99.90;;;;;;5018904;28;20507;-61
2024/01/24 02:24:28;;;;;;;4.47;3.70;;;10.30;99.90;;;;;;5018470;28;20507;-60
2024/01/24 02:26:56;;;;;;;3.90;3.60;;;10.40;99.90;;;;;;5017592;28;20578;-61
2024/01/24 02:29:24;;;;;;;4.63;4.20;;;10.40;99.90;;;;;;5019174;28;20483;-61
2024/01/24 02:31:52;;;;;;;4.37;3.97;;;10.40;99.90;;;;;;5016877;28;20576;-61
2024/01/24 02:34:20;;;;;;;4.37;3.97;;;10.50;99.90;;;;;;5020084;28;20984;-61
2024/01/24 02:36:48;;;;;;;4.53;3.70;;;10.50;99.90;;;;;;5017609;28;20990;-61
2024/01/24 02:39:17;;;;;;;4.50;3.87;;;10.60;99.90;;;;;;5015002;28;20500;-61
2024/01/24 02:41:47;;;;;;;4.80;4.40;;;10.60;99.90;;;;;;5014866;28;20491;-60
2024/01/24 02:44:15;;;;;;;4.30;3.90;;;10.60;99.90;;;;;;5017569;28;20495;-61
2024/01/24 02:46:43;;;;;;;4.27;3.87;;;10.70;99.90;;;;;;5016541;28;20507;-61
2024/01/24 02:49:11;;;;;;;4.23;3.83;;;10.70;99.90;;;;;;5018125;28;20475;-61
2024/01/24 02:51:39;;;;;;;4.73;4.33;;;10.70;99.90;;;;;;5017860;28;20492;-61
2024/01/24 02:54:07;;;;;;;4.23;3.73;;;10.80;99.90;;;;;;5017487;28;20467;-61
2024/01/24 02:56:37;;;;;;;3.83;3.53;;;10.90;99.90;;;;;;5017542;28;20813;-61
2024/01/24 02:59:06;;;;;;;3.87;3.37;;;10.90;99.90;;;;;;5012308;28;20475;-60
2024/01/24 03:01:34;;;;;;;3.60;3.30;;;10.90;99.90;;;;;;5016505;28;20571;-61
2024/01/24 03:04:02;;;;;;;4.27;3.50;;;11.00;99.90;;;;;;5016086;28;20496;-61
2024/01/24 03:06:30;;;;;;;3.03;2.83;;;11.00;99.90;;;;;;5017131;28;21013;-61
2024/01/24 03:08:59;;;;;;;2.63;2.43;;;11.00;99.90;;;;;;5014738;28;20459;-61
2024/01/24 03:11:27;;;;;;;2.70;2.50;;;11.00;99.90;;;;;;5015575;28;20486;-60
2024/01/24 03:13:55;;;;;;;2.43;2.23;;;11.00;99.90;;;;;;5020576;28;20503;-61
2024/01/24 03:16:24;;;;;;;2.40;2.20;;;11.00;99.90;;;;;;5017005;28;20538;-61
2024/01/24 03:18:52;;;;;;;2.23;1.97;;;11.00;99.90;;;;;;5015132;28;20560;-61
2024/01/24 03:21:22;;;;;;;2.90;2.10;;;11.00;99.90;;;;;;5015415;28;20561;-61
2024/01/24 03:23:50;;;;;;;1.73;1.63;;;11.00;99.90;;;;;;5016893;28;20519;-61
2024/01/24 03:26:18;;;;;;;1.97;1.60;;;11.00;99.90;;;;;;5018501;28;20471;-61
2024/01/24 03:28:46;;;;;;;1.80;1.57;;;11.00;99.90;;;;;;5013557;28;20477;-61
2024/01/24 03:31:15;;;;;;;1.50;1.40;;;11.10;99.90;;;;;;5015371;28;21079;-61
2024/01/24 03:33:44;;;;;;;2.60;1.27;;;11.10;99.90;;;;;;5019077;28;20554;-61
2024/01/24 03:36:12;;;;;;;1.20;1.10;;;11.20;99.90;;;;;;5014646;28;20482;-61
2024/01/24 03:38:40;;;;;;;2.50;1.17;;;11.20;99.90;;;;;;5015739;28;20468;-61
2024/01/24 03:41:08;;;;;;;2.10;1.17;;;11.20;99.90;;;;;;5011839;28;20492;-60
2024/01/24 03:43:39;;;;;;;3.90;1.40;;;11.30;99.90;;;;;;5017216;28;20895;-61
2024/01/24 03:46:07;;;;;;;3.10;1.50;;;11.20;99.90;;;;;;5015814;28;20820;-61
2024/01/24 03:48:35;;;;;;;4.43;1.40;;;11.10;99.90;;;;;;5016510;28;20553;-62
2024/01/24 03:51:09;;;;;;;3.73;1.20;;;11.00;99.90;;;;;;5014512;28;21015;-61
2024/01/24 03:53:37;;;;;;;5.60;1.50;;;11.00;99.90;;;;;;5017699;28;20926;-61
2024/01/24 03:56:06;;;;;;;3.77;1.37;;;10.90;99.90;;;;;;5016518;28;20477;-61
2024/01/24 03:58:35;;;;;;;4.67;1.27;;;10.80;99.90;;;;;;5017246;28;20466;-61
2024/01/24 04:01:03;;;;;;;6.57;1.53;;;10.80;99.90;;;;;;5012329;28;20487;-61
2024/01/24 04:03:31;;;;;;;1.83;1.37;;;10.80;99.90;;;;;;5018077;28;20478;-61
2024/01/24 04:05:59;;;;;;;5.27;1.30;;;10.90;99.90;;;;;;5017309;28;20475;-61
2024/01/24 04:08:28;;;;;;;3.90;1.40;;;10.90;99.90;;;;;;5016882;28;21082;-61
2024/01/24 04:10:56;;;;;;;3.20;1.60;;;10.90;99.90;;;;;;5020070;28;20562;-61
2024/01/24 04:13:25;;;;;;;1.90;1.20;;;10.90;99.90;;;;;;5019164;28;20482;-61
2024/01/24 04:15:53;;;;;;;2.77;1.40;;;10.90;99.90;;;;;;5017421;28;20564;-61
2024/01/24 04:18:21;;;;;;;4.20;1.20;;;10.80;99.90;;;;;;5021147;28;20471;-60
2024/01/24 04:20:49;;;;;;;3.77;1.47;;;10.80;99.90;;;;;;5016967;28;20518;-61
2024/01/24 04:23:17;;;;;;;3.87;1.47;;;10.80;99.90;;;;;;5020185;28;20495;-61
2024/01/24 04:25:46;;;;;;;2.60;1.10;;;10.70;99.90;;;;;;5020662;28;20590;-61
2024/01/24 04:28:14;;;;;;;4.40;1.53;;;10.80;99.90;;;;;;5019683;28;20554;-61
2024/01/24 04:30:42;;;;;;;2.43;1.20;;;10.70;99.90;;;;;;5020215;28;20587;-60
2024/01/24 04:33:10;;;;;;;6.47;1.07;;;10.70;99.90;;;;;;5017815;28;20511;-61
2024/01/24 04:35:38;;;;;;;3.90;1.10;;;10.60;99.90;;;;;;5011247;28;20556;-61
2024/01/24 04:38:06;;;;;;;3.20;1.20;;;10.60;99.90;;;;;;5021481;28;21093;-60
2024/01/24 04:40:34;;;;;;;2.20;1.30;;;10.60;99.90;;;;;;5020172;28;20506;-61
2024/01/24 04:43:04;;;;;;;4.40;1.40;;;10.60;99.90;;;;;;5021472;28;20553;-61
2024/01/24 04:45:32;;;;;;;4.73;1.40;;;10.60;99.90;;;;;;5023602;28;20606;-62
2024/01/24 04:48:00;;;;;;;4.63;1.50;;;10.60;99.90;;;;;;5020486;28;20476;-61
2024/01/24 04:50:28;;;;;;;5.90;1.40;;;10.60;99.90;;;;;;5018774;28;20605;-61
2024/01/24 04:52:57;;;;;;;2.27;1.30;;;10.70;99.90;;;;;;5019978;28;20471;-61
2024/01/24 04:55:25;;;;;;;5.43;1.63;;;10.70;99.90;;;;;;5019631;28;20562;-61
2024/01/24 04:57:53;;;;;;;6.10;1.90;;;10.80;99.90;;;;;;5021041;28;20483;-61
2024/01/24 05:00:22;;;;;;;3.80;1.93;;;10.70;99.90;;;;;;5019007;28;20486;-62
2024/01/24 05:02:50;;;;;;;8.47;2.13;;;10.70;99.90;;;;;;5019280;28;20552;-61
2024/01/24 05:05:18;;;;;;;5.07;1.90;;;10.70;99.90;;;;;;5017521;28;20487;-62
2024/01/24 05:07:46;;;;;;;6.63;2.80;;;10.60;99.90;;;;;;5021020;28;20467;-61
2024/01/24 05:10:16;;;;;;;5.27;1.90;;;10.70;99.90;;;;;;5018927;28;20491;-61
2024/01/24 05:12:44;;;;;;;7.57;2.67;;;10.70;99.90;;;;;;5019883;28;21034;-61
2024/01/24 05:15:13;;;;;;;8.60;2.70;;;10.70;99.90;;;;;;5021071;28;20546;-61
2024/01/24 05:17:43;;;;;;;6.23;2.97;;;10.70;99.90;;;;;;5019662;28;20463;-61
2024/01/24 05:20:12;;;;;;;7.90;2.20;;;10.70;99.90;;;;;;5017572;28;21051;-61
2024/01/24 05:22:40;;;;;;;11.43;3.33;;;10.80;99.90;;;;;;5022711;28;20521;-61
2024/01/24 05:25:08;;;;;;;6.20;2.30;;;10.80;99.90;;;;;;5017495;28;20566;-61
2024/01/24 05:27:36;;;;;;;6.80;2.77;;;10.80;99.90;;;;;;5017972;28;20472;-61
2024/01/24 05:30:05;;;;;;;9.83;2.83;;;10.80;99.90;;;;;;5017124;28;20491;-60
2024/01/24 05:32:54;;;;;;;13.63;3.40;;;10.70;99.90;;;;;;5020448;28;20472;-59
2024/01/24 05:35:22;;;;;;;7.57;2.47;;;10.70;99.90;;;;;;5010749;28;20467;-61
2024/01/24 05:37:51;;;;;;;9.93;3.23;;;10.70;99.90;;;;;;5021142;28;20463;-62
2024/01/24 05:40:19;;;;;;;12.73;3.97;;;10.70;99.90;;;;;;5018369;28;20567;-61
2024/01/24 05:42:47;;;;;;;12.10;3.10;;;10.70;99.90;;;;;;5017371;28;20562;-61
2024/01/24 05:45:19;;;;;;;13.20;3.33;;;10.70;99.90;;;;;;5015725;28;20733;-61
2024/01/24 05:47:48;;;;;;;12.70;2.97;;;10.70;99.90;;;;;;5018644;28;20471;-61
2024/01/24 05:50:18;;;;;;;12.80;3.73;;;10.80;99.90;;;;;;5016000;28;20514;-62
2024/01/24 05:52:47;;;;;;;9.07;3.07;;;10.80;99.90;;;;;;5010096;28;20460;-61
2024/01/24 05:55:15;;;;;;;11.87;3.13;;;10.80;99.90;;;;;;5015707;28;20468;-61
2024/01/24 05:57:46;;;;;;;14.07;3.77;;;10.80;99.90;;;;;;5017800;28;20483;-61
2024/01/24 06:00:14;;;;;;;11.43;3.17;;;10.80;99.90;;;;;;5016163;28;20484;-62
2024/01/24 06:02:44;;;;;;;8.80;2.87;;;10.80;99.90;;;;;;5011193;28;20486;-61
2024/01/24 06:05:15;;;;;;;7.87;2.27;;;10.70;99.90;;;;;;5019513;28;21012;-61
2024/01/24 06:07:44;;;;;;;10.53;4.13;;;10.70;99.90;;;;;;5020964;28;20882;-61
2024/01/24 06:10:12;;;;;;;8.50;3.07;;;10.80;99.90;;;;;;5016170;28;20495;-61
2024/01/24 06:12:40;;;;;;;10.80;3.07;;;10.80;99.90;;;;;;5011814;28;20568;-61
2024/01/24 06:15:09;;;;;;;11.90;3.40;;;10.80;99.90;;;;;;5018956;28;20472;-61
2024/01/24 06:17:37;;;;;;;12.30;2.97;;;10.80;99.90;;;;;;5018224;28;20475;-61
2024/01/24 06:20:06;;;;;;;13.33;3.70;;;10.80;99.90;;;;;;5014524;28;20870;-61
2024/01/24 06:22:36;;;;;;;9.77;3.57;;;10.80;99.90;;;;;;5002056;28;20475;-62
2024/01/24 06:25:07;;;;;;;10.73;2.77;;;10.90;99.90;;;;;;5010315;28;20562;-61
2024/01/24 06:27:36;;;;;;;10.67;3.40;;;10.90;99.90;;;;;;5010917;28;20502;-61
2024/01/24 06:30:05;;;;;;;15.00;3.27;;;10.80;99.90;;;;;;5016379;28;20491;-61
2024/01/24 06:32:49;;;;;;;10.13;3.03;;;10.70;99.90;;;;;;5018222;28;20476;-61
2024/01/24 06:35:18;;;;;;;12.40;3.67;;;10.70;99.90;;;;;;5018300;28;20524;-61
2024/01/24 06:37:48;;;;;;;9.30;2.70;;;10.60;99.90;;;;;;5007495;28;20579;-60
2024/01/24 06:40:18;;;;;;;9.17;3.00;;;10.70;99.90;;;;;;5009422;28;20492;-61
2024/01/24 06:42:46;;;;;;;10.90;3.80;;;10.70;99.90;;;;;;4993830;28;20588;-60
2024/01/24 06:45:14;;;;;;;8.93;3.40;;;10.70;99.90;;;;;;4992389;28;20478;-61
2024/01/24 06:47:43;;;;;;;14.07;3.37;;;10.70;99.90;;;;;;4997669;28;20479;-60
2024/01/24 06:50:13;;;;;;;10.20;2.60;;;10.70;99.90;;;;;;4991853;28;20993;-61
2024/01/24 06:52:41;;;;;;;14.20;4.10;;;10.70;99.90;;;;;;4996938;28;20539;-59
2024/01/24 06:55:11;;;;;;;10.27;3.53;;;10.70;99.90;;;;;;4995495;28;20483;-61
2024/01/24 06:57:39;;;;;;;10.73;3.00;;;10.70;99.90;;;;;;5000571;28;20468;-61
2024/01/24 07:00:09;;;;;;;14.07;3.90;;;10.70;99.90;;;;;;4995953;28;22542;-62
2024/01/24 07:02:38;;;;;;;11.47;2.93;;;10.70;99.90;;;;;;4999719;28;20913;-59
2024/01/24 07:05:07;;;;;;;12.57;3.87;;;10.70;99.90;;;;;;4997166;28;20474;-60
2024/01/24 07:07:37;;;;;;;14.90;3.10;;;10.80;99.90;;;;;;4996058;28;20951;-59
2024/01/24 07:10:08;;;;;;;7.70;2.87;;;10.80;99.90;;;;;;4997958;28;21004;-61
2024/01/24 07:12:44;;;;;;;11.83;3.20;;;10.80;99.90;;;;;;4995366;28;20587;-60
2024/01/24 07:15:15;;;;;;;14.13;3.53;;;10.70;99.90;;;;;;4997441;28;20482;-61
2024/01/24 07:17:44;;;;;;;8.87;3.33;;;10.80;99.90;;;;;;4999011;28;20617;-61
2024/01/24 07:20:13;;;;;;;9.50;3.53;;;10.80;99.90;;;;;;4994647;28;20516;-60
2024/01/24 07:22:41;;;;;;;10.63;3.90;;;10.70;99.90;;;;;;4998650;28;20477;-61
2024/01/24 07:25:09;;;;;;;12.87;3.33;;;10.80;99.90;;;;;;5000035;28;20480;-60
2024/01/24 07:27:37;;;;;;;12.80;3.77;;;10.70;99.90;;;;;;4995161;28;20540;-61
2024/01/24 07:30:08;;;;;;;11.67;3.30;;;10.70;99.90;;;;;;4994181;28;21033;-60
2024/01/24 07:32:39;;;;;;;13.50;3.73;;;10.60;99.90;;;;;;4999345;28;20989;-61
2024/01/24 07:35:08;;;;;;;13.93;3.87;;;10.50;99.90;;;;;;4999669;28;20479;-61
2024/01/24 07:37:37;;;;;;;12.90;3.97;;;10.30;99.90;;;;;;4998204;28;20535;-59
2024/01/24 07:40:06;;;;;;;13.93;3.73;;;10.30;99.90;;;;;;4996412;28;20484;-60
2024/01/24 07:42:34;;;;;;;16.77;3.63;;;10.20;99.90;;;;;;4995784;28;20522;-60
2024/01/24 07:45:02;;;;;;;13.97;4.03;;;10.20;99.90;;;;;;4997142;28;20469;-61
2024/01/24 07:47:31;;;;;;;16.80;4.30;;;10.10;99.90;;;;;;4996255;28;20880;-61
2024/01/24 07:50:01;;;;;;;15.37;4.30;;;10.10;99.90;;;;;;4997042;28;20500;-61
2024/01/24 07:52:29;;;;;;;15.13;3.47;;;10.10;99.90;;;;;;4998500;28;20473;-61
2024/01/24 07:55:09;;;;;;;17.17;4.43;;;10.10;99.90;;;;;;4995457;28;20534;-60
2024/01/24 07:57:38;;;;;;;12.93;4.17;;;10.10;99.90;;;;;;4995179;28;20463;-60
2024/01/24 08:00:08;;;;;;;13.67;3.93;;;10.10;99.90;;;;;;4996795;28;20515;-60
2024/01/24 08:02:38;;;;;;;18.17;4.70;;;10.10;99.90;;;;;;4998452;28;20472;-61
2024/01/24 08:05:06;;;;;;;14.57;3.90;;;10.20;99.90;;;;;;4997062;28;20481;-61
2024/01/24 08:07:36;;;;;;;13.10;4.10;;;10.20;99.90;;;;;;4998247;28;20492;-60
2024/01/24 08:10:06;;;;;;;15.73;5.07;;;10.20;99.90;;;;;;4997292;28;20491;-60
2024/01/24 08:12:34;;;;;;;14.93;5.73;;;10.20;99.90;;;;;;4998797;28;20547;-61
2024/01/24 08:15:05;;;;;;;12.00;3.77;;;10.30;99.90;;;;;;4994490;28;20485;-61
2024/01/24 08:17:33;;;;;;;12.03;4.13;;;10.30;99.90;;;;;;4999081;28;20476;-60
2024/01/24 08:20:04;;;;;;;18.77;4.50;;;10.30;99.90;;;;;;4994940;28;20495;-60
2024/01/24 08:22:32;;;;;;;13.73;4.50;;;10.30;99.90;;;;;;4998106;28;20945;-60
2024/01/24 08:25:01;;;;;;;16.03;4.93;;;10.40;99.90;;;;;;4996394;28;20553;-60
2024/01/24 08:27:29;;;;;;;19.70;4.63;;;10.40;99.90;;;;;;4996898;28;20519;-60
2024/01/24 08:29:59;;;;;;;11.93;3.93;;;10.40;99.90;;;;;;4997075;28;20576;-60
2024/01/24 08:32:27;;;;;;;16.60;4.40;;;10.40;99.90;;;;;;4997936;28;20468;-60
2024/01/24 08:34:55;;;;;;;14.07;4.23;;;10.40;99.90;;;;;;4999206;28;20993;-60
2024/01/24 08:37:25;;;;;;;14.03;4.40;;;10.40;99.90;;;;;;4998953;28;20476;-59
2024/01/24 08:39:53;;;;;;;16.63;4.30;;;10.40;99.90;;;;;;4996733;28;20502;-60
2024/01/24 08:42:21;;;;;;;18.17;4.80;;;10.40;99.90;;;;;;4996097;28;20820;-60
2024/01/24 08:44:49;;;;;;;17.43;5.10;;;10.40;99.90;;;;;;4996512;28;20478;-60
2024/01/24 08:47:17;;;;;;;15.03;4.50;;;10.40;99.90;;;;;;4999978;28;20567;-60
2024/01/24 08:49:45;;;;;;;11.23;4.13;;;10.40;99.90;;;;;;4997696;28;20503;-61
2024/01/24 08:52:13;;;;;;;13.83;4.50;;;10.40;99.90;;;;;;4996110;28;20492;-61
2024/01/24 08:54:45;;;;;;;18.70;4.80;;;10.40;99.90;;;;;;5002395;28;20467;-61
2024/01/24 08:57:13;;;;;;;14.00;4.97;;;10.40;99.90;;;;;;5000974;28;20555;-60
2024/01/24 08:59:41;;;;;;;19.37;4.90;;;10.40;99.90;;;;;;5001166;28;20969;-61
2024/01/24 09:02:10;;;;;;;11.93;4.70;;;10.40;99.90;;;;;;4998522;28;20732;-60
2024/01/24 09:04:38;;;;;;;17.77;4.53;;;10.40;99.90;;;;;;4999580;28;20837;-64
2024/01/24 09:07:08;;;;;;;14.87;5.10;;;10.40;99.90;;;;;;4999219;28;20580;-62
2024/01/24 09:09:36;;;;;;;13.23;3.83;;;10.40;99.90;;;;;;5000720;28;20475;-64
2024/01/24 09:12:11;;;;;;;13.23;4.40;;;10.50;99.90;;;;;;5000740;28;20483;-63
2024/01/24 09:14:39;;;;;;;18.63;4.90;;;10.50;99.90;;;;;;5002071;28;20491;-63
2024/01/24 09:17:08;;;;;;;14.47;4.40;;;10.50;99.90;;;;;;5001964;28;20465;-63
2024/01/24 09:19:38;;;;;;;15.33;4.57;;;10.50;99.90;;;;;;5000215;28;20464;-63
2024/01/24 09:22:06;;;;;;;13.87;5.00;;;10.50;99.90;;;;;;4997336;28;20480;-64
2024/01/24 09:24:34;;;;;;;17.80;5.07;;;10.40;99.90;;;;;;5001238;28;20473;-63
2024/01/24 09:27:03;;;;;;;19.10;5.13;;;10.40;99.90;;;;;;4999194;28;20488;-64
2024/01/24 09:29:33;;;;;;;16.23;4.60;;;10.40;99.90;;;;;;5001393;28;20488;-63
2024/01/24 09:32:01;;;;;;;11.60;3.80;;;10.40;99.90;;;;;;4999340;28;20492;-63
2024/01/24 09:34:29;;;;;;;16.03;4.33;;;10.40;99.90;;;;;;5000568;28;21263;-64
2024/01/24 09:36:57;;;;;;;14.10;3.70;;;10.40;99.90;;;;;;5001675;28;20476;-63
2024/01/24 09:39:25;;;;;;;11.97;4.47;;;10.40;99.90;;;;;;5000686;28;20481;-63
2024/01/24 09:41:53;;;;;;;10.50;3.70;;;10.40;99.90;;;;;;5000968;28;20480;-63
2024/01/24 09:44:24;;;;;;;13.20;4.10;;;10.50;99.90;;;;;;4997729;28;20552;-64
2024/01/24 09:46:55;;;;;;;14.80;4.60;;;10.50;99.90;;;;;;5001509;28;20468;-63
2024/01/24 09:49:24;;;;;;;14.03;3.97;;;10.50;99.90;;;;;;5001276;28;20500;-62
2024/01/24 09:51:54;;;;;;;16.53;4.73;;;10.50;99.90;;;;;;5001913;28;20494;-63
2024/01/24 09:54:24;;;;;;;12.17;4.00;;;10.50;99.90;;;;;;5000727;28;20468;-63
2024/01/24 09:56:52;;;;;;;14.63;4.87;;;10.50;99.90;;;;;;5002357;28;20829;-63
2024/01/24 09:59:21;;;;;;;23.53;5.87;;;10.50;99.90;;;;;;5001603;28;20472;-64
2024/01/24 10:01:50;;;;;;;18.97;4.77;;;10.50;99.90;;;;;;5001667;28;20512;-63
2024/01/24 10:04:20;;;;;;;15.23;4.10;;;10.50;99.90;;;;;;5002499;28;20483;-62
2024/01/24 10:06:49;;;;;;;12.73;4.63;;;10.50;99.90;;;;;;4996590;28;20500;-63
2024/01/24 10:09:19;;;;;;;14.80;4.57;;;10.40;99.90;;;;;;4996351;28;20468;-63
2024/01/24 10:11:47;;;;;;;16.33;4.40;;;10.40;99.90;;;;;;4998955;28;21001;-63
2024/01/24 10:14:15;;;;;;;15.37;4.50;;;10.40;99.90;;;;;;5000525;28;20551;-62
2024/01/24 10:16:43;;;;;;;12.13;3.80;;;10.50;99.90;;;;;;5000547;28;20854;-62
2024/01/24 10:19:11;;;;;;;14.73;4.20;;;10.50;99.90;;;;;;4999644;28;20488;-63
2024/01/24 10:21:42;;;;;;;13.97;3.90;;;10.40;99.90;;;;;;5000062;28;20504;-62
2024/01/24 10:24:11;;;;;;;17.70;4.40;;;10.50;99.90;;;;;;5000666;28;20508;-63
2024/01/24 10:26:39;;;;;;;9.83;4.23;;;10.50;99.90;;;;;;4999362;28;20471;-64
2024/01/24 10:29:08;;;;;;;15.17;4.70;;;10.50;99.90;;;;;;5000349;28;20495;-63
2024/01/24 10:31:36;;;;;;;12.00;4.70;;;10.40;99.90;;;;;;4998740;28;20539;-64
2024/01/24 10:34:04;;;;;;;22.17;5.47;;;10.40;99.90;;;;;;4999739;28;20958;-63
2024/01/24 10:36:33;;;;;;;20.20;4.70;;;10.40;99.90;;;;;;4992961;28;20554;-63
2024/01/24 10:39:05;;;;;;;12.00;4.20;;;10.40;99.90;;;;;;5001902;28;20471;-62
2024/01/24 10:41:37;;;;;;;16.87;4.93;;;10.30;99.90;;;;;;4999940;28;20841;-63
2024/01/24 10:44:09;;;;;;;15.20;3.90;;;10.30;99.90;;;;;;4996176;28;20504;-62
2024/01/24 10:46:39;;;;;;;13.30;3.97;;;10.30;99.90;;;;;;4999680;28;20469;-62
2024/01/24 10:49:12;;;;;;;14.77;4.87;;;10.20;99.90;;;;;;5000693;28;20500;-63
2024/01/24 10:51:42;;;;;;;16.37;4.70;;;10.20;99.90;;;;;;4997581;28;20481;-62
2024/01/24 10:54:15;;;;;;;15.10;4.90;;;10.20;99.90;;;;;;4999794;28;20472;-62
2024/01/24 10:56:48;;;;;;;15.77;4.13;;;10.20;99.90;;;;;;4999926;28;20510;-62
2024/01/24 10:59:18;;;;;;;15.07;3.83;;;10.10;99.90;;;;;;4999621;28;20460;-63
2024/01/24 11:01:47;;;;;;;13.33;5.30;;;10.10;99.90;;;;;;4997083;28;20485;-63
2024/01/24 11:04:21;;;;;;;13.33;4.30;;;10.10;99.90;;;;;;5001001;28;20720;-63
2024/01/24 11:06:55;;;;;;;14.17;4.97;;;10.10;99.90;;;;;;4997390;28;20473;-63
2024/01/24 11:09:31;;;;;;;12.70;3.43;;;10.00;99.90;;;;;;4999670;28;21110;-64
2024/01/24 11:11:59;;;;;;;16.00;6.00;;;9.90;99.90;;;;;;4993147;28;20491;-63
2024/01/24 11:14:30;;;;;;;13.43;3.87;;;9.80;99.90;;;;;;4996868;28;20508;-63
2024/01/24 11:16:59;;;;;;;17.30;4.10;;;9.80;99.90;;;;;;4994905;28;20476;-62
2024/01/24 11:19:29;;;;;;;11.93;4.23;;;9.80;99.90;;;;;;4996410;28;20499;-62
2024/01/24 11:22:01;;;;;;;19.03;4.17;;;9.80;99.90;;;;;;4996095;28;20486;-64
2024/01/24 11:24:52;;;;;;;19.87;3.87;;;9.80;99.90;;;;;;4994036;28;20472;-63
2024/01/24 11:27:33;;;;;;;19.33;4.63;;;9.70;99.90;;;;;;4996792;28;20574;-62
2024/01/24 11:30:17;;;;;;;16.67;4.83;;;9.70;99.90;;;;;;4994951;28;20572;-62
2024/01/24 11:33:04;;;;;;;14.47;4.20;;;9.60;99.90;;;;;;5000707;28;20957;-62
2024/01/24 11:35:35;;;;;;;15.10;4.80;;;9.60;99.90;;;;;;4996479;28;20481;-63
2024/01/24 11:38:28;;;;;;;17.60;4.17;;;9.60;99.90;;;;;;4996661;28;20504;-63
2024/01/24 11:41:02;;;;;;;16.80;5.77;;;9.60;99.90;;;;;;5007551;28;20882;-63
2024/01/24 11:43:32;;;;;;;18.47;4.60;;;9.50;99.90;;;;;;5018774;28;20475;-63
2024/01/24 11:46:06;;;;;;;18.60;4.60;;;9.50;99.90;;;;;;5020117;28;20664;-62
2024/01/24 11:48:37;;;;;;;21.60;4.70;;;9.40;99.90;;;;;;5018778;28;20492;-63
2024/01/24 11:51:09;;;;;;;21.23;4.70;;;9.40;99.90;;;;;;5018852;28;20483;-63
2024/01/24 11:53:37;;;;;;;14.47;4.77;;;9.30;99.90;;;;;;5020841;28;20522;-63
2024/01/24 11:56:14;;;;;;;19.83;5.33;;;9.30;99.90;;;;;;5020211;28;20470;-63
2024/01/24 11:58:42;;;;;;;13.77;5.47;;;9.30;99.90;;;;;;5021805;28;20841;-62
2024/01/24 12:01:12;;;;;;;13.47;4.10;;;9.20;99.90;;;;;;5017245;28;20578;-62
2024/01/24 12:03:47;;;;;;;13.10;4.37;;;9.20;99.90;;;;;;5019303;28;20561;-62
2024/01/24 12:06:16;;;;;;;17.63;4.90;;;9.10;99.90;;;;;;5019539;28;20986;-62
2024/01/24 12:08:45;;;;;;;17.97;4.33;;;9.10;99.90;;;;;;5017596;28;20490;-64
2024/01/24 12:11:19;;;;;;;15.30;4.70;;;9.00;99.90;;;;;;5018412;28;20478;-63
2024/01/24 12:13:49;;;;;;;13.67;4.67;;;9.00;99.90;;;;;;5016179;28;20467;-63
2024/01/24 12:16:18;;;;;;;18.27;5.10;;;8.90;99.90;;;;;;5019188;28;20482;-64
2024/01/24 12:18:47;;;;;;;15.27;4.63;;;9.00;99.90;;;;;;5020309;28;20831;-63
2024/01/24 12:21:16;;;;;;;15.37;3.77;;;9.00;99.90;;;;;;5019567;28;20488;-62
2024/01/24 12:23:47;;;;;;;19.93;5.37;;;9.10;99.90;;;;;;5012317;28;20983;-63
2024/01/24 12:26:16;;;;;;;15.50;3.57;;;9.10;99.90;;;;;;5019659;28;20476;-63
2024/01/24 12:28:47;;;;;;;12.63;3.57;;;9.10;99.90;;;;;;5021242;28;20510;-63
2024/01/24 12:31:17;;;;;;;19.53;5.43;;;9.10;99.90;;;;;;5022689;28;20934;-63
2024/01/24 12:33:45;;;;;;;16.73;4.20;;;9.10;99.90;;;;;;5024984;28;20463;-64
2024/01/24 12:36:14;;;;;;;21.97;5.03;;;9.10;99.90;;;;;;5024480;28;20482;-61
2024/01/24 12:38:42;;;;;;;20.03;4.90;;;9.00;99.90;;;;;;5018689;28;20467;-65
2024/01/24 12:41:10;;;;;;;17.27;5.50;;;9.10;99.90;;;;;;5015901;28;20553;-62
2024/01/24 12:43:38;;;;;;;13.60;4.60;;;9.20;99.90;;;;;;5023348;28;20494;-62
2024/01/24 12:46:08;;;;;;;15.03;4.70;;;9.20;99.90;;;;;;5021922;28;21103;-62
2024/01/24 12:48:38;;;;;;;20.57;6.87;;;9.30;99.90;;;;;;5023214;28;21027;-62
2024/01/24 12:51:07;;;;;;;13.00;4.30;;;9.30;99.90;;;;;;5022661;28;20478;-64
2024/01/24 12:53:35;;;;;;;13.97;4.57;;;9.40;99.90;;;;;;5021455;28;20920;-63
2024/01/24 12:56:03;;;;;;;15.27;5.23;;;9.40;99.90;;;;;;5021364;28;20477;-63